createdAt,value
2023-02-23T02:00:13.154Z,29.27
2023-02-23T02:01:13.217Z,29.22
2023-02-23T02:02:13.251Z,29.22
2023-02-23T02:03:13.294Z,29.21
2023-02-23T02:04:13.342Z,29.22
2023-02-23T02:05:13.420Z,29.21
2023-02-23T02:06:13.438Z,29.20
2023-02-23T02:07:13.481Z,29.21
2023-02-23T02:08:13.502Z,29.20
2023-02-23T02:09:13.554Z,29.18
2023-02-23T02:10:13.605Z,29.17
2023-02-23T02:11:13.646Z,29.14
2023-02-23T02:12:13.684Z,29.17
2023-02-23T02:13:13.729Z,29.15
2023-02-23T02:14:13.783Z,29.17
2023-02-23T02:15:13.834Z,29.16
2023-02-23T02:16:13.894Z,29.17
2023-02-23T02:17:13.907Z,29.16
2023-02-23T02:18:13.953Z,29.17
2023-02-23T02:19:13.987Z,29.16
2023-02-23T02:20:14.033Z,29.18
2023-02-23T02:21:14.075Z,29.16
2023-02-23T02:22:14.113Z,29.19
2023-02-23T02:23:14.168Z,29.18
2023-02-23T02:24:14.212Z,29.14
2023-02-23T02:25:14.272Z,29.17
2023-02-23T02:26:14.294Z,29.16
2023-02-23T02:27:14.346Z,29.14
2023-02-23T02:28:14.403Z,29.15
2023-02-23T02:29:14.451Z,29.16
2023-02-23T02:30:14.501Z,29.12
2023-02-23T02:31:14.561Z,29.13
2023-02-23T02:32:14.601Z,29.14
2023-02-23T02:33:14.637Z,29.14
2023-02-23T02:34:14.693Z,29.12
2023-02-23T02:35:14.742Z,29.12
2023-02-23T02:36:14.788Z,29.13
2023-02-23T02:37:14.846Z,29.10
2023-02-23T02:38:14.889Z,29.11
2023-02-23T02:39:14.922Z,29.10
2023-02-23T02:40:14.986Z,29.08
2023-02-23T02:41:15.029Z,29.10
2023-02-23T02:42:15.067Z,29.14
2023-02-23T02:43:15.130Z,29.15
2023-02-23T02:44:15.174Z,29.12
2023-02-23T02:45:15.235Z,29.13
2023-02-23T02:46:15.358Z,29.11
2023-02-23T02:47:15.385Z,29.10
2023-02-23T02:48:15.424Z,29.08
2023-02-23T02:49:15.480Z,29.10
2023-02-23T02:50:15.547Z,29.08
2023-02-23T02:51:15.629Z,29.09
2023-02-23T02:52:15.667Z,29.13
2023-02-23T02:53:15.676Z,29.11
2023-02-23T02:54:15.721Z,29.06
2023-02-23T02:55:15.761Z,29.06
2023-02-23T02:56:15.806Z,29.04
2023-02-23T02:57:15.853Z,29.06
2023-02-23T02:58:15.895Z,29.09
2023-02-23T02:59:15.937Z,29.08
2023-02-23T03:00:15.979Z,29.08
2023-02-23T03:01:16.065Z,29.07
2023-02-23T03:02:16.053Z,29.05
2023-02-23T03:03:16.122Z,29.05
2023-02-23T03:04:16.179Z,29.06
2023-02-23T03:05:16.354Z,29.08
2023-02-23T03:06:16.278Z,29.03
2023-02-23T03:07:16.335Z,29.03
2023-02-23T03:08:16.423Z,29.04
2023-02-23T03:09:16.450Z,29.01
2023-02-23T03:10:16.499Z,29.02
2023-02-23T03:11:16.727Z,29.01
2023-02-23T03:12:16.583Z,29.02
2023-02-23T03:13:16.632Z,29.01
2023-02-23T03:14:16.672Z,29.02
2023-02-23T03:15:16.718Z,29.00
2023-02-23T03:16:16.779Z,29.01
2023-02-23T03:17:16.785Z,29.00
2023-02-23T03:18:16.829Z,29.01
2023-02-23T03:19:16.868Z,29.00
2023-02-23T03:20:16.910Z,28.99
2023-02-23T03:21:17.189Z,29.01
2023-02-23T03:22:16.986Z,29.00
2023-02-23T03:23:17.019Z,28.99
2023-02-23T03:24:17.057Z,28.96
2023-02-23T03:25:17.108Z,28.99
2023-02-23T03:26:17.154Z,28.97
2023-02-23T03:27:17.200Z,29.01
2023-02-23T03:28:17.245Z,28.97
2023-02-23T03:29:17.310Z,28.97
2023-02-23T03:30:17.333Z,28.99
2023-02-23T03:31:17.810Z,28.98
2023-02-23T03:32:17.572Z,28.99
2023-02-23T03:33:17.447Z,28.97
2023-02-23T03:34:17.490Z,28.96
2023-02-23T03:35:17.563Z,28.97
2023-02-23T03:36:17.561Z,28.93
2023-02-23T03:37:17.612Z,28.95
2023-02-23T03:38:17.649Z,28.93
2023-02-23T03:39:17.699Z,28.93
2023-02-23T03:40:17.816Z,28.92
2023-02-23T03:41:18.077Z,28.95
2023-02-23T03:42:17.818Z,28.95
2023-02-23T03:43:17.861Z,28.93
2023-02-23T03:44:17.901Z,28.91
2023-02-23T03:45:17.993Z,28.92
2023-02-23T03:46:17.993Z,28.92
2023-02-23T03:47:18.034Z,28.92
2023-02-23T03:48:18.069Z,28.92
2023-02-23T03:49:18.109Z,28.91
2023-02-23T03:50:18.169Z,28.92
2023-02-23T03:51:18.490Z,28.91
2023-02-23T03:52:18.232Z,28.93
2023-02-23T03:53:18.242Z,28.91
2023-02-23T03:54:18.279Z,28.92
2023-02-23T03:55:18.319Z,28.90
2023-02-23T03:56:18.356Z,28.89
2023-02-23T03:57:18.374Z,28.88
2023-02-23T03:58:20.367Z,28.87
2023-02-23T03:59:18.436Z,28.86
2023-02-23T04:00:18.465Z,28.86
2023-02-23T04:01:18.883Z,28.82
2023-02-23T04:02:18.572Z,28.81
2023-02-23T04:03:18.585Z,28.79
2023-02-23T04:04:18.601Z,28.76
2023-02-23T04:05:18.631Z,28.73
2023-02-23T04:06:18.661Z,28.73
2023-02-23T04:07:18.692Z,28.72
2023-02-23T04:08:18.713Z,28.71
2023-02-23T04:09:18.736Z,28.70
2023-02-23T04:10:18.769Z,28.73
2023-02-23T04:11:19.082Z,28.69
2023-02-23T04:12:18.825Z,28.66
2023-02-23T04:13:18.835Z,28.65
2023-02-23T04:14:18.873Z,28.66
2023-02-23T04:15:18.897Z,28.63
2023-02-23T04:16:18.986Z,28.61
2023-02-23T04:17:18.955Z,28.62
2023-02-23T04:18:18.997Z,28.60
2023-02-23T04:19:19.018Z,28.58
2023-02-23T04:20:19.039Z,28.58
2023-02-23T04:21:19.301Z,28.58
2023-02-23T04:22:19.092Z,28.57
2023-02-23T04:23:19.116Z,28.53
2023-02-23T04:24:19.160Z,28.51
2023-02-23T04:25:19.175Z,28.51
2023-02-23T04:26:19.207Z,28.49
2023-02-23T04:27:19.240Z,28.47
2023-02-23T04:28:19.307Z,28.46
2023-02-23T04:29:19.291Z,28.48
2023-02-23T04:30:19.333Z,28.46
2023-02-23T04:31:20.656Z,28.45
2023-02-23T04:32:19.477Z,28.43
2023-02-23T04:33:19.421Z,28.44
2023-02-23T04:34:19.456Z,28.42
2023-02-23T04:35:19.495Z,28.40
2023-02-23T04:36:19.528Z,28.39
2023-02-23T04:37:19.547Z,28.40
2023-02-23T04:38:19.571Z,28.40
2023-02-23T04:39:19.613Z,28.37
2023-02-23T04:40:19.641Z,28.35
2023-02-23T04:41:19.968Z,28.35
2023-02-23T04:42:19.705Z,28.34
2023-02-23T04:43:19.741Z,28.35
2023-02-23T04:44:19.849Z,28.32
2023-02-23T04:45:19.808Z,28.33
2023-02-23T04:46:19.883Z,28.32
2023-02-23T04:47:19.873Z,28.27
2023-02-23T04:48:19.906Z,28.29
2023-02-23T04:49:19.937Z,28.30
2023-02-23T04:50:19.969Z,28.27
2023-02-23T04:51:20.154Z,28.29
2023-02-23T04:52:20.024Z,28.24
2023-02-23T04:53:20.042Z,28.26
2023-02-23T04:54:20.071Z,28.24
2023-02-23T04:55:20.077Z,28.21
2023-02-23T04:56:20.111Z,28.23
2023-02-23T04:57:20.140Z,28.20
2023-02-23T04:58:20.134Z,28.20
2023-02-23T04:59:20.166Z,28.19
2023-02-23T05:00:20.205Z,28.20
2023-02-23T05:01:20.483Z,28.19
2023-02-23T05:02:20.245Z,28.18
2023-02-23T05:03:20.270Z,28.19
2023-02-23T05:04:20.293Z,28.15
2023-02-23T05:05:20.307Z,28.16
2023-02-23T05:06:20.324Z,28.13
2023-02-23T05:07:20.365Z,28.15
2023-02-23T05:08:20.386Z,28.14
2023-02-23T05:09:20.485Z,28.13
2023-02-23T05:10:20.587Z,28.12
2023-02-23T05:11:20.967Z,28.11
2023-02-23T05:12:20.757Z,28.11
2023-02-23T05:13:20.835Z,28.12
2023-02-23T05:14:20.930Z,28.10
2023-02-23T05:15:21.027Z,28.10
2023-02-23T05:16:21.107Z,28.10
2023-02-23T05:17:21.205Z,28.07
2023-02-23T05:18:21.296Z,28.08
2023-02-23T05:41:23.288Z,27.94
2023-02-23T05:42:23.258Z,27.94
2023-02-23T05:43:23.338Z,27.94
2023-02-23T05:44:23.427Z,27.92
2023-02-23T05:45:23.498Z,27.92
2023-02-23T05:46:23.643Z,27.93
2023-02-23T05:47:23.674Z,27.92
2023-02-23T05:48:23.773Z,27.91
2023-02-23T05:49:23.849Z,27.93
2023-02-23T05:50:23.927Z,27.92
2023-02-23T05:51:23.996Z,27.90
2023-02-23T05:52:24.074Z,27.90
2023-02-23T05:53:24.160Z,27.89
2023-02-23T05:54:24.237Z,27.87
2023-02-23T05:55:24.312Z,27.87
2023-02-23T05:56:24.394Z,27.88
2023-02-23T05:57:24.464Z,27.89
2023-02-23T05:58:24.541Z,27.86
2023-02-23T05:59:24.621Z,27.86
2023-02-23T06:00:24.705Z,27.85
2023-02-23T06:01:24.772Z,27.86
2023-02-23T06:02:24.902Z,27.87
2023-02-23T06:03:24.931Z,27.84
2023-02-23T06:04:24.992Z,27.84
2023-02-23T06:05:25.095Z,27.84
2023-02-23T06:06:25.126Z,27.87
2023-02-23T06:07:25.218Z,27.84
2023-02-23T06:08:25.321Z,27.85
2023-02-23T06:09:25.384Z,27.84
2023-02-23T06:10:25.452Z,27.83
2023-02-23T06:11:25.541Z,27.83
2023-02-23T06:12:25.614Z,27.84
2023-02-23T06:13:25.692Z,27.84
2023-02-23T06:14:25.765Z,27.84
2023-02-23T06:15:25.850Z,27.83
2023-02-23T06:16:26.012Z,27.83
2023-02-23T06:17:26.025Z,27.84
2023-02-23T06:18:26.103Z,27.84
2023-02-23T06:19:26.195Z,27.83
2023-02-23T06:20:26.319Z,27.84
2023-02-23T06:21:26.376Z,27.83
2023-02-23T06:22:26.440Z,27.84
2023-02-23T06:23:26.522Z,27.84
2023-02-23T06:24:26.610Z,27.83
2023-02-23T06:25:26.684Z,27.84
2023-02-23T06:27:26.869Z,27.82
2023-02-23T06:28:26.909Z,27.85
2023-02-23T06:29:26.997Z,28.24
2023-02-23T06:30:27.116Z,28.53
2023-02-23T06:31:27.161Z,28.80
2023-02-23T06:32:27.269Z,29.04
2023-02-23T06:33:27.314Z,28.98
2023-02-23T06:34:27.373Z,29.07
2023-02-23T06:35:27.453Z,29.12
2023-02-23T06:36:27.620Z,29.13
2023-02-23T06:37:27.580Z,29.16
2023-02-23T06:38:28.463Z,29.15
2023-02-23T06:39:27.705Z,29.13
2023-02-23T06:40:27.765Z,29.13
2023-02-23T06:41:28.801Z,29.13
2023-02-23T06:42:27.816Z,29.12
2023-02-23T06:43:27.854Z,29.10
2023-02-23T06:44:27.891Z,29.10
2023-02-23T06:45:28.006Z,29.10
2023-02-23T06:46:27.974Z,29.08
2023-02-23T06:47:27.984Z,29.09
2023-02-23T06:48:28.056Z,29.07
2023-02-23T06:49:28.043Z,29.06
2023-02-23T06:50:28.079Z,29.05
2023-02-23T06:51:28.123Z,29.05
2023-02-23T06:52:28.142Z,29.03
2023-02-23T06:53:28.169Z,29.01
2023-02-23T06:54:28.202Z,29.02
2023-02-23T06:55:28.255Z,29.01
2023-02-23T06:56:28.330Z,28.97
2023-02-23T06:57:28.386Z,29.01
2023-02-23T06:58:28.515Z,28.98
2023-02-23T06:59:28.543Z,28.98
2023-02-23T07:00:28.605Z,29.01
2023-02-23T07:01:28.764Z,28.98
2023-02-23T07:02:28.747Z,28.97
2023-02-23T07:03:28.825Z,28.95
2023-02-23T07:04:29.510Z,28.96
2023-02-23T07:05:28.986Z,28.95
2023-02-23T07:06:29.029Z,28.97
2023-02-23T07:07:29.089Z,28.93
2023-02-23T07:08:29.164Z,28.94
2023-02-23T07:09:30.659Z,28.92
2023-02-23T07:10:29.292Z,28.93
2023-02-23T07:11:29.366Z,28.91
2023-02-23T07:12:29.431Z,28.91
2023-02-23T07:13:29.499Z,28.92
2023-02-23T07:14:29.566Z,28.89
2023-02-23T07:15:29.631Z,28.90
2023-02-23T07:16:29.736Z,28.88
2023-02-23T07:17:29.748Z,28.88
2023-02-23T07:18:29.849Z,28.85
2023-02-23T07:19:29.860Z,28.87
2023-02-23T07:20:29.953Z,28.86
2023-02-23T07:21:30.010Z,28.86
2023-02-23T07:22:30.084Z,29.10
2023-02-23T07:23:30.908Z,29.21
2023-02-23T07:24:30.900Z,29.41
2023-02-23T07:25:30.267Z,29.66
2023-02-23T07:26:30.311Z,29.95
2023-02-23T07:27:30.356Z,30.16
2023-02-23T07:28:30.414Z,30.54
2023-02-23T07:29:30.434Z,30.58
2023-02-23T07:30:30.619Z,30.85
2023-02-23T07:31:30.664Z,30.91
2023-02-23T07:32:30.824Z,31.06
2023-02-23T07:33:30.664Z,31.23
2023-02-23T07:34:30.729Z,31.33
2023-02-23T07:35:30.738Z,31.51
2023-02-23T07:36:30.790Z,31.61
2023-02-23T07:37:30.812Z,31.72
2023-02-23T07:38:30.851Z,31.85
2023-02-23T07:39:30.931Z,32.00
2023-02-23T07:40:31.205Z,32.14
2023-02-23T07:41:31.073Z,32.32
2023-02-23T07:42:31.124Z,32.49
2023-02-23T07:43:31.166Z,32.57
2023-02-23T07:44:31.252Z,32.78
2023-02-23T07:45:31.346Z,32.90
2023-02-23T07:46:31.399Z,33.03
2023-02-23T07:47:31.506Z,33.06
2023-02-23T07:48:32.536Z,33.22
2023-02-23T07:49:31.533Z,33.36
2023-02-23T07:50:31.539Z,33.49
2023-02-23T07:51:31.543Z,33.64
2023-02-23T07:52:31.581Z,33.76
2023-02-23T07:53:31.576Z,33.86
2023-02-23T07:54:31.606Z,34.01
2023-02-23T07:55:31.616Z,34.09
2023-02-23T07:56:31.628Z,34.21
2023-02-23T07:57:31.686Z,34.36
2023-02-23T07:58:31.697Z,34.47
2023-02-23T07:59:31.749Z,34.60
2023-02-23T08:00:31.819Z,34.71
2023-02-23T08:01:31.937Z,34.84
2023-02-23T08:02:31.951Z,34.95
2023-02-23T08:03:32.011Z,35.10
2023-02-23T08:04:32.088Z,35.19
2023-02-23T08:05:32.129Z,35.27
2023-02-23T08:06:32.185Z,35.33
2023-02-23T08:07:32.247Z,35.44
2023-02-23T08:08:32.291Z,35.53
2023-02-23T08:09:32.343Z,35.64
2023-02-23T08:10:32.396Z,35.74
2023-02-23T08:11:32.432Z,35.89
2023-02-23T08:12:32.597Z,35.89
2023-02-23T08:13:32.516Z,36.04
2023-02-23T08:14:32.582Z,36.18
2023-02-23T08:15:32.600Z,36.30
2023-02-23T08:16:32.740Z,36.53
2023-02-23T08:17:32.689Z,36.75
2023-02-23T08:18:32.840Z,36.69
2023-02-23T08:19:32.774Z,32.59
2023-02-23T08:20:32.848Z,32.24
2023-02-23T08:21:32.925Z,30.40
2023-02-23T08:22:47.156Z,29.68
2023-02-23T08:23:34.003Z,28.91
2023-02-23T08:24:33.020Z,27.52
2023-02-23T08:25:33.088Z,26.39
2023-02-23T08:26:33.072Z,27.13
2023-02-23T08:27:33.196Z,27.63
2023-02-23T08:28:33.127Z,28.20
2023-02-23T08:29:33.157Z,28.53
2023-02-23T08:30:33.259Z,28.81
2023-02-23T08:31:33.306Z,29.02
2023-02-23T08:32:33.290Z,29.30
2023-02-23T08:33:33.271Z,29.47
2023-02-23T08:34:33.321Z,29.58
2023-02-23T08:35:33.355Z,29.66
2023-02-23T08:36:33.397Z,29.74
2023-02-23T08:37:33.435Z,29.83
2023-02-23T08:38:33.469Z,29.94
2023-02-23T08:39:33.505Z,29.95
2023-02-23T08:40:33.520Z,30.07
2023-02-23T08:41:33.546Z,30.10
2023-02-23T08:42:33.613Z,30.20
2023-02-23T08:43:33.670Z,30.30
2023-02-23T08:44:33.746Z,30.36
2023-02-23T08:45:33.837Z,30.47
2023-02-23T08:46:33.956Z,30.44
2023-02-23T08:47:34.515Z,30.51
2023-02-23T08:48:34.075Z,30.66
2023-02-23T08:49:34.153Z,30.70
2023-02-23T08:50:34.212Z,30.78
2023-02-23T08:51:34.278Z,30.87
2023-02-23T08:52:34.352Z,30.96
2023-02-23T08:53:34.409Z,31.11
2023-02-23T08:54:34.487Z,31.22
2023-02-23T08:55:34.543Z,31.32
2023-02-23T08:56:35.552Z,31.38
2023-02-23T08:57:34.586Z,31.46
2023-02-23T08:58:34.580Z,31.59
2023-02-23T08:59:34.594Z,31.67
2023-02-23T09:00:34.602Z,31.83
2023-02-23T09:01:34.639Z,31.93
2023-02-23T09:02:34.637Z,31.96
2023-02-23T09:03:37.046Z,32.04
2023-02-23T09:04:34.641Z,32.11
2023-02-23T09:05:34.756Z,32.35
2023-02-23T09:06:35.487Z,32.41
2023-02-23T09:07:34.671Z,32.50
2023-02-23T09:08:34.678Z,32.58
2023-02-23T09:09:34.695Z,32.78
2023-02-23T09:10:34.704Z,32.79
2023-02-23T09:11:34.742Z,32.82
2023-02-23T09:12:34.728Z,33.03
2023-02-23T09:13:34.749Z,33.13
2023-02-23T09:14:34.761Z,33.53
2023-02-23T09:15:34.788Z,33.61
2023-02-23T09:16:34.804Z,33.65
2023-02-23T09:17:34.782Z,33.64
2023-02-23T09:18:34.793Z,33.77
2023-02-23T09:19:34.804Z,33.99
2023-02-23T09:20:34.820Z,33.96
2023-02-23T09:21:34.831Z,33.89
2023-02-23T09:22:36.742Z,33.62
2023-02-23T09:23:34.861Z,33.34
2023-02-23T09:24:34.856Z,32.95
2023-02-23T09:25:34.891Z,32.69
2023-02-23T09:26:34.881Z,32.58
2023-02-23T09:27:34.902Z,32.45
2023-02-23T09:28:34.898Z,32.44
2023-02-23T09:29:34.917Z,32.46
2023-02-23T09:30:34.961Z,32.48
2023-02-23T09:31:35.007Z,32.51
2023-02-23T09:32:35.150Z,32.51
2023-02-23T09:33:34.972Z,32.53
2023-02-23T09:34:37.367Z,32.56
2023-02-23T09:35:35.957Z,32.53
2023-02-23T09:36:35.222Z,32.58
2023-02-23T09:37:35.108Z,32.57
2023-02-23T09:38:35.182Z,32.59
2023-02-23T10:11:38.429Z,32.17
2023-02-23T10:12:36.756Z,32.15
2023-02-23T10:13:36.810Z,32.09
2023-02-23T10:14:37.085Z,32.09
2023-02-23T10:15:37.013Z,32.06
2023-02-23T10:21:37.308Z,32.15
2023-02-23T10:25:37.596Z,32.10
2023-02-23T10:35:38.326Z,32.08
2023-02-23T10:41:39.488Z,32.11
2023-02-23T12:37:43.119Z,34.89
2023-02-23T12:38:43.182Z,34.89
2023-02-23T12:39:43.228Z,34.87
2023-02-23T12:40:43.275Z,34.91
2023-02-23T12:41:43.361Z,34.91
2023-02-23T12:42:43.395Z,34.89
2023-02-23T12:43:43.458Z,34.91
2023-02-23T12:44:43.528Z,34.95
2023-02-23T12:45:43.625Z,34.92
2023-02-23T12:46:43.684Z,34.91
2023-02-23T12:47:43.745Z,34.94
2023-02-23T12:48:43.830Z,34.96
2023-02-23T12:49:43.894Z,34.99
2023-02-23T12:50:43.945Z,35.03
2023-02-23T12:51:44.026Z,34.97
2023-02-23T12:52:44.095Z,35.00
2023-02-23T12:53:44.188Z,35.01
2023-02-23T12:54:44.259Z,34.98
2023-02-23T12:55:44.311Z,35.01
2023-02-23T12:56:44.377Z,35.00
2023-02-23T12:57:44.463Z,35.03
2023-02-23T12:58:44.550Z,35.07
2023-02-23T12:59:44.630Z,35.03
2023-02-23T13:00:44.704Z,35.05
2023-02-23T13:01:44.852Z,35.01
2023-02-23T13:02:44.921Z,35.05
2023-02-23T13:03:44.969Z,35.07
2023-02-23T13:04:45.033Z,35.04
2023-02-23T13:05:45.122Z,35.10
2023-02-23T13:06:45.211Z,35.11
2023-02-23T13:07:45.310Z,35.10
2023-02-23T13:08:45.393Z,35.08
2023-02-23T13:09:45.478Z,35.11
2023-02-23T13:10:45.566Z,35.11
2023-02-23T13:11:45.799Z,35.12
2023-02-23T13:12:45.770Z,35.11
2023-02-23T13:13:46.632Z,35.12
2023-02-23T13:14:45.915Z,35.09
2023-02-23T13:15:46.002Z,35.09
2023-02-23T13:16:46.131Z,35.11
2023-02-23T13:17:46.182Z,35.08
2023-02-23T13:18:46.279Z,35.08
2023-02-23T13:19:46.361Z,35.11
2023-02-23T13:20:46.467Z,35.10
2023-02-23T13:21:46.533Z,35.06
2023-02-23T13:22:46.629Z,35.07
2023-02-23T13:23:47.640Z,35.08
2023-02-23T13:24:46.801Z,35.12
2023-02-23T13:25:46.886Z,35.11
2023-02-23T13:26:46.965Z,35.08
2023-02-23T13:27:47.049Z,35.10
2023-02-23T13:28:47.123Z,35.08
2023-02-23T13:29:47.188Z,35.09
2023-02-23T13:30:47.345Z,35.10
2023-02-23T13:31:47.547Z,35.08
2023-02-23T13:32:47.475Z,35.08
2023-02-23T13:33:47.475Z,35.09
2023-02-23T13:34:47.539Z,35.08
2023-02-23T13:35:47.577Z,35.09
2023-02-23T13:36:47.628Z,35.10
2023-02-23T13:37:47.658Z,35.10
2023-02-23T13:38:47.729Z,35.09
2023-02-23T13:39:48.641Z,35.06
2023-02-23T13:40:47.869Z,35.05
2023-02-23T13:41:47.908Z,35.03
2023-02-23T13:42:47.963Z,35.00
2023-02-23T13:43:48.636Z,35.00
2023-02-23T13:44:48.110Z,34.99
2023-02-23T13:45:48.166Z,34.98
2023-02-23T13:46:48.225Z,34.99
2023-02-23T13:47:48.286Z,34.97
2023-02-23T13:48:56.710Z,34.98
2023-02-23T13:49:49.361Z,34.96
2023-02-23T13:50:48.369Z,35.00
2023-02-23T13:51:48.356Z,34.95
2023-02-23T13:52:48.379Z,34.98
2023-02-23T13:53:48.409Z,34.92
2023-02-23T13:54:48.418Z,34.95
2023-02-23T13:55:50.074Z,34.93
2023-02-23T13:56:48.461Z,34.89
2023-02-23T13:57:48.469Z,34.91
2023-02-23T13:58:48.494Z,34.89
2023-02-23T13:59:48.553Z,34.86
2023-02-23T14:00:48.521Z,34.85
2023-02-23T14:01:48.686Z,34.84
2023-02-23T14:02:48.736Z,34.84
2023-02-23T14:03:48.695Z,34.81
2023-02-23T14:04:48.796Z,34.81
2023-02-23T14:05:48.797Z,34.80
2023-02-23T14:06:48.846Z,34.78
2023-02-23T14:07:48.887Z,34.78
2023-02-23T14:42:50.453Z,34.55
2023-02-23T14:43:50.577Z,34.56
2023-02-23T14:44:50.606Z,34.55
2023-02-23T14:45:50.667Z,34.54
2023-02-23T14:46:50.715Z,34.56
2023-02-23T14:47:50.755Z,34.53
2023-02-23T14:48:51.141Z,34.53
2023-02-23T14:49:50.851Z,34.53
2023-02-23T14:50:50.900Z,34.54
2023-02-23T14:51:50.938Z,34.50
2023-02-23T14:52:50.959Z,34.49
2023-02-23T14:53:50.975Z,34.51
2023-02-23T14:54:51.080Z,34.49
2023-02-23T14:55:51.049Z,34.49
2023-02-23T14:56:51.139Z,34.47
2023-02-23T14:57:51.282Z,34.46
2023-02-23T14:58:51.379Z,34.46
2023-02-23T14:59:51.503Z,34.45
2023-02-23T15:00:51.520Z,34.47
2023-02-23T15:01:51.579Z,34.44
2023-02-23T15:02:54.295Z,34.46
2023-02-23T15:03:51.588Z,34.43
2023-02-23T15:04:51.668Z,34.41
2023-02-23T15:05:51.639Z,34.41
2023-02-23T15:06:51.647Z,34.39
2023-02-23T15:07:51.680Z,34.42
2023-02-23T15:08:51.685Z,34.39
2023-02-23T15:09:51.706Z,34.38
2023-02-23T15:10:51.723Z,34.39
2023-02-23T15:11:51.742Z,34.35
2023-02-23T15:12:51.774Z,34.39
2023-02-23T15:13:51.774Z,34.38
2023-02-23T15:14:51.798Z,34.32
2023-02-23T15:15:51.839Z,34.36
2023-02-23T15:16:51.833Z,34.33
2023-02-23T15:17:51.864Z,34.31
2023-02-23T15:18:51.884Z,34.31
2023-02-23T15:19:51.906Z,34.30
2023-02-23T15:20:51.925Z,34.28
2023-02-23T15:21:51.942Z,34.29
2023-02-23T15:22:51.954Z,34.26
2023-02-23T15:23:51.984Z,34.28
2023-02-23T15:24:51.993Z,34.28
2023-02-23T15:25:52.008Z,34.22
2023-02-23T15:26:52.022Z,34.25
2023-02-23T15:27:52.062Z,34.23
2023-02-23T15:28:52.060Z,34.22
2023-02-23T15:29:52.092Z,34.21
2023-02-23T15:30:52.119Z,34.18
2023-02-23T15:31:52.378Z,34.19
2023-02-23T15:32:52.256Z,34.18
2023-02-23T15:33:52.188Z,34.17
2023-02-23T15:34:52.203Z,34.15
2023-02-23T15:35:52.231Z,34.12
2023-02-23T15:36:52.244Z,34.10
2023-02-23T15:37:59.672Z,34.12
2023-02-23T15:38:53.284Z,34.13
2023-02-23T15:39:52.326Z,34.10
2023-02-23T15:40:52.338Z,34.09
2023-02-23T15:41:52.355Z,34.08
2023-02-23T15:42:52.382Z,34.07
2023-02-23T15:43:52.409Z,34.07
2023-02-23T15:44:52.436Z,34.02
2023-02-23T15:45:52.455Z,34.05
2023-02-23T15:46:52.479Z,34.02
2023-02-23T15:47:52.489Z,34.01
2023-02-23T15:48:52.512Z,34.01
2023-02-23T15:49:52.541Z,34.02
2023-02-23T15:50:52.628Z,34.00
2023-02-23T15:51:52.651Z,34.00
2023-02-23T15:52:52.764Z,33.98
2023-02-23T15:53:52.859Z,33.95
2023-02-23T15:54:52.989Z,33.98
2023-02-23T15:55:53.112Z,33.97
2023-02-23T15:56:53.161Z,33.95
2023-02-23T15:57:53.252Z,33.94
2023-02-23T15:58:57.070Z,33.92
2023-02-23T15:59:53.263Z,33.91
2023-02-23T16:00:53.340Z,33.92
2023-02-23T16:01:53.308Z,33.89
2023-02-23T16:02:53.352Z,33.93
2023-02-23T16:03:53.357Z,33.90
2023-02-23T16:04:53.389Z,33.90
2023-02-23T16:05:53.412Z,33.89
2023-02-23T16:06:53.437Z,33.91
2023-02-23T16:07:53.449Z,33.89
2023-02-23T16:08:53.477Z,33.91
2023-02-23T16:09:53.606Z,33.89
2023-02-23T16:10:53.535Z,33.89
2023-02-23T16:11:54.200Z,33.85
2023-02-23T16:12:53.584Z,33.87
2023-02-23T16:13:53.637Z,33.89
2023-02-23T16:14:54.954Z,33.87
2023-02-23T16:15:53.639Z,33.86
2023-02-23T16:17:10.105Z,33.85
2023-02-23T16:17:54.693Z,33.86
2023-02-23T16:18:53.736Z,33.85
2023-02-23T16:19:53.736Z,33.88
2023-02-23T16:20:54.399Z,33.86
2023-02-23T16:21:53.777Z,33.86
2023-02-23T16:22:53.809Z,33.85
2023-02-23T16:23:53.826Z,33.86
2023-02-23T16:24:53.857Z,33.86
2023-02-23T16:25:53.873Z,33.84
2023-02-23T16:26:53.896Z,33.85
2023-02-23T16:27:53.947Z,33.84
2023-02-23T16:28:53.940Z,33.83
2023-02-23T16:29:53.963Z,33.82
2023-02-23T16:30:53.997Z,33.81
2023-02-23T16:31:54.162Z,33.85
2023-02-23T16:32:54.120Z,33.84
2023-02-23T16:33:54.041Z,33.83
2023-02-23T16:34:54.064Z,33.84
2023-02-23T16:35:54.094Z,33.82
2023-02-23T16:36:54.781Z,33.82
2023-02-23T16:37:54.125Z,33.82
2023-02-23T16:38:54.140Z,33.84
2023-02-23T16:39:54.191Z,33.81
2023-02-23T16:40:54.193Z,33.81
2023-02-23T16:41:54.216Z,33.81
2023-02-23T16:42:54.937Z,33.78
2023-02-23T16:43:54.320Z,33.83
2023-02-23T16:44:54.282Z,33.85
2023-02-23T16:45:54.362Z,33.81
2023-02-23T16:46:54.329Z,33.85
2023-02-23T16:47:54.341Z,33.82
2023-02-23T16:48:54.361Z,33.80
2023-02-23T16:49:54.386Z,33.80
2023-02-23T16:50:54.409Z,33.78
2023-02-23T16:51:54.496Z,33.78
2023-02-23T16:52:54.509Z,33.77
2023-02-23T16:53:54.522Z,33.79
2023-02-23T16:54:55.969Z,33.76
2023-02-23T16:55:54.592Z,33.78
2023-02-23T16:56:54.627Z,33.78
2023-02-23T16:57:54.662Z,33.79
2023-02-23T16:58:54.686Z,33.78
2023-02-23T16:59:54.721Z,33.78
2023-02-23T17:00:54.818Z,33.77
2023-02-23T17:25:56.043Z,33.75
2023-02-23T17:26:55.994Z,33.74
2023-02-23T17:27:56.047Z,33.77
2023-02-23T17:28:56.089Z,33.75
2023-02-23T17:29:56.138Z,33.78
2023-02-23T17:30:56.215Z,33.73
2023-02-23T17:31:56.419Z,33.72
2023-02-23T17:32:56.381Z,33.75
2023-02-23T17:33:56.313Z,33.75
2023-02-23T17:34:56.366Z,33.72
2023-02-23T17:35:56.407Z,33.74
2023-02-23T17:36:56.455Z,33.74
2023-02-23T17:37:56.512Z,33.76
2023-02-23T17:38:56.536Z,33.73
2023-02-23T17:39:56.591Z,33.75
2023-02-23T17:40:56.641Z,33.76
2023-02-23T17:41:56.690Z,33.70
2023-02-23T17:42:56.737Z,33.71
2023-02-23T17:43:56.814Z,33.74
2023-02-23T17:44:56.834Z,33.75
2023-02-23T17:45:57.294Z,33.73
2023-02-23T17:46:56.942Z,33.74
2023-02-23T17:47:57.010Z,33.72
2023-02-23T17:48:57.066Z,33.71
2023-02-23T17:49:57.168Z,33.71
2023-02-23T17:50:57.246Z,33.70
2023-02-23T17:51:57.233Z,33.69
2023-02-23T17:52:57.288Z,33.69
2023-02-23T17:53:57.340Z,33.73
2023-02-23T17:54:58.932Z,33.72
2023-02-23T17:55:57.447Z,33.67
2023-02-23T17:56:57.503Z,33.71
2023-02-23T17:57:57.555Z,33.71
2023-02-23T17:58:57.613Z,33.72
2023-02-23T17:59:57.821Z,33.72
2023-02-23T18:00:57.729Z,33.70
2023-02-23T18:01:57.828Z,33.74
2023-02-23T18:02:57.914Z,33.74
2023-02-23T18:03:57.909Z,33.73
2023-02-23T18:04:57.971Z,33.75
2023-02-23T18:05:58.025Z,33.71
2023-02-23T18:06:58.099Z,33.72
2023-02-23T18:07:58.151Z,33.80
2023-02-23T18:08:58.216Z,33.78
2023-02-23T18:09:58.373Z,33.74
2023-02-23T18:10:58.346Z,33.74
2023-02-23T18:11:58.373Z,33.71
2023-02-23T18:12:58.436Z,33.70
2023-02-23T18:13:58.493Z,33.72
2023-02-23T18:14:58.554Z,33.70
2023-02-23T18:15:58.711Z,33.71
2023-02-23T18:16:58.680Z,33.69
2023-02-23T18:17:58.737Z,33.70
2023-02-23T18:18:58.805Z,33.69
2023-02-23T18:19:58.869Z,33.69
2023-02-23T18:20:58.938Z,33.67
2023-02-23T18:21:59.008Z,33.68
2023-02-23T18:22:59.084Z,33.68
2023-02-23T18:23:59.150Z,33.69
2023-02-23T18:24:59.220Z,33.69
2023-02-23T18:25:59.293Z,33.70
2023-02-23T18:26:59.368Z,33.72
2023-02-23T18:27:59.441Z,33.71
2023-02-23T18:28:59.512Z,33.74
2023-02-23T18:29:59.632Z,33.71
2023-02-23T18:30:59.706Z,33.67
2023-02-23T18:31:59.975Z,33.66
2023-02-23T18:32:59.918Z,33.70
2023-02-23T18:33:59.859Z,33.66
2023-02-23T18:34:59.927Z,33.68
2023-02-23T18:35:59.977Z,33.69
2023-02-23T18:37:00.052Z,33.75
2023-02-23T18:38:00.192Z,33.65
2023-02-23T18:39:00.160Z,33.71
2023-02-23T18:40:00.245Z,33.69
2023-02-23T18:41:00.286Z,33.74
2023-02-23T18:42:00.839Z,33.71
2023-02-23T18:43:00.405Z,33.72
2023-02-23T18:44:00.463Z,33.66
2023-02-23T18:45:00.553Z,33.65
2023-02-23T18:46:00.607Z,33.71
2023-02-23T18:47:00.677Z,33.71
2023-02-23T18:48:00.748Z,33.62
2023-02-23T18:49:00.807Z,33.67
2023-02-23T18:50:00.869Z,33.68
2023-02-23T18:51:00.932Z,33.64
2023-02-23T18:52:01.008Z,33.64
2023-02-23T18:53:01.074Z,33.65
2023-02-23T18:54:01.139Z,33.64
2023-02-23T18:55:01.203Z,33.64
2023-02-23T18:56:01.265Z,33.71
2023-02-23T18:57:01.344Z,33.64
2023-02-23T18:58:01.416Z,33.61
2023-02-23T18:59:01.505Z,33.68
2023-02-23T19:37:05.223Z,33.47
2023-02-23T19:38:04.509Z,33.45
2023-02-23T19:39:04.594Z,33.47
2023-02-23T19:40:04.672Z,33.48